Alledonia, Ohio
Current Conditions -  °F | °C
As of 3:49 PM on Tuesday 21 Oct 2014 (Local Time) from KHLG Reporting Station
Light Rain Light Rain  
Wind Chill:   Ceiling: 800
Heat Index:   Visibility: 3mi
Dew Point:   Wind: 12mph
Humidity: 93%   Direction: 330°NNW
Pressure: 29.92"   Gusts: 23mph
Location:  39.9°N, 80.97°W
Report Text: KHLG 211949Z 33010G20KT 3SM -RA BR BKN008 BKN014 OVC022 09/08 A2992 RMK AO2 CIG 006V011 P0010
Loading
Personal Weather Stations






























Interactive Weather Map
Tropical Storm Tracking
New forecast layout! Learn more

10-Day Weather Forecast

Advertisements
Track Severe Weather on mobile